createdAt,value
2022-08-18T00:00:20.594Z,99429.69
2022-08-18T00:03:00.559Z,99437.06
2022-08-18T00:05:27.690Z,99441.78
2022-08-18T00:07:57.911Z,99442.94
2022-08-18T00:10:25.149Z,99435.88
2022-08-18T00:12:52.374Z,99432.56
2022-08-18T00:15:26.249Z,99439.75
2022-08-18T00:17:52.991Z,99444.31
2022-08-18T00:20:23.615Z,99455.19
2022-08-18T00:22:52.177Z,99457.69
2022-08-18T00:25:20.411Z,99460.38
2022-08-18T00:27:46.942Z,99459.69
2022-08-18T00:30:20.387Z,99467.41
2022-08-18T00:32:56.211Z,99469.41
2022-08-18T00:35:30.667Z,99472.28
2022-08-18T00:38:00.543Z,99467.75
2022-08-18T00:40:38.072Z,99478.63
2022-08-18T00:43:07.011Z,99475.97
2022-08-18T00:45:40.563Z,99482.50
2022-08-18T00:48:09.018Z,99485.84
2022-08-18T00:50:41.174Z,99485.16
2022-08-18T00:53:22.558Z,99476.47
2022-08-18T00:55:54.381Z,99477.13
2022-08-18T00:58:39.854Z,99479.31
2022-08-18T01:01:09.481Z,99479.31
2022-08-18T01:03:39.948Z,99479.50
2022-08-18T01:06:39.433Z,99486.34
2022-08-18T01:09:08.434Z,99483.50
2022-08-18T01:11:38.284Z,99480.19
2022-08-18T01:14:09.542Z,99481.34
2022-08-18T01:20:51.414Z,99468.78
2022-08-18T01:23:20.698Z,99462.41
2022-08-18T01:26:01.329Z,99461.41
2022-08-18T01:28:32.830Z,99465.75
2022-08-18T01:31:01.499Z,99466.59
2022-08-18T01:33:32.680Z,99464.75
2022-08-18T01:36:20.905Z,99463.41
2022-08-18T01:38:51.536Z,99462.91
2022-08-18T01:41:29.473Z,99464.59
2022-08-18T01:43:59.424Z,99464.75
2022-08-18T01:46:28.135Z,99461.41
2022-08-18T01:48:55.173Z,99456.22
2022-08-18T01:51:36.317Z,99449.19
2022-08-18T01:54:09.707Z,99439.31
2022-08-18T01:56:37.033Z,99440.16
2022-08-18T01:59:05.510Z,99440.31
2022-08-18T02:01:32.951Z,99446.31
2022-08-18T02:04:31.140Z,99449.19
2022-08-18T02:06:50.282Z,99450.03
2022-08-18T02:09:23.682Z,99450.19
2022-08-18T02:11:50.957Z,99448.34
2022-08-18T02:14:20.294Z,99433.47
2022-08-18T02:16:53.474Z,99434.28
2022-08-18T02:19:25.909Z,99433.63
2022-08-18T02:21:52.935Z,99439.16
2022-08-18T02:24:19.521Z,99431.44
2022-08-18T02:26:46.109Z,99437.81
2022-08-18T02:29:12.911Z,99436.13
2022-08-18T02:31:39.432Z,99425.56
2022-08-18T02:34:05.949Z,99438.94
2022-08-18T02:36:32.486Z,99438.09
2022-08-18T02:38:59.728Z,99436.28
2022-08-18T02:41:29.294Z,99446.84
2022-08-18T02:43:56.533Z,99452.06
2022-08-18T02:46:23.482Z,99458.06
2022-08-18T02:48:52.283Z,99460.56
2022-08-18T02:51:19.434Z,99471.13
2022-08-18T02:53:47.596Z,99463.56
2022-08-18T02:56:39.954Z,99461.75
2022-08-18T02:59:10.813Z,99466.41
2022-08-18T03:01:41.030Z,99469.63
2022-08-18T03:04:10.128Z,99464.75
2022-08-18T03:06:39.188Z,99478.81
2022-08-18T03:09:07.928Z,99474.97
2022-08-18T03:11:35.338Z,99476.47
2022-08-18T03:14:02.328Z,99471.13
2022-08-18T03:16:31.871Z,99474.44
2022-08-18T03:18:59.828Z,99476.97
2022-08-18T03:21:31.128Z,99472.09
2022-08-18T03:24:00.848Z,99463.72
2022-08-18T03:26:30.065Z,99458.03
2022-08-18T03:28:58.115Z,99458.66
2022-08-18T03:31:27.848Z,99455.66
2022-08-18T03:33:59.371Z,99460.00
2022-08-18T03:36:32.033Z,99462.50
2022-08-18T03:39:01.922Z,99462.34
2022-08-18T03:41:44.441Z,99460.50
2022-08-18T03:44:16.742Z,99457.63
2022-08-18T03:46:44.896Z,99463.84
2022-08-18T03:49:12.637Z,99465.69
2022-08-18T03:51:43.631Z,99461.34
2022-08-18T03:54:10.475Z,99462.00
2022-08-18T03:56:38.981Z,99471.72
2022-08-18T03:59:10.284Z,99467.19
2022-08-18T04:01:39.551Z,99473.22
2022-08-18T04:04:11.297Z,99479.06
2022-08-18T04:06:44.573Z,99474.56
2022-08-18T04:09:14.630Z,99475.19
2022-08-18T04:11:45.932Z,99469.50
2022-08-18T04:14:15.327Z,99463.97
2022-08-18T04:16:42.425Z,99469.97
2022-08-18T04:19:10.065Z,99467.31
2022-08-18T04:21:39.787Z,99482.59
2022-08-18T04:24:07.752Z,99478.03
2022-08-18T04:26:43.509Z,99471.34
2022-08-18T04:29:12.440Z,99482.75
2022-08-18T04:31:39.329Z,99473.84
2022-08-18T04:34:06.426Z,99473.03
2022-08-18T04:36:35.097Z,99478.41
2022-08-18T04:39:03.637Z,99469.50
2022-08-18T04:41:30.212Z,99472.03
2022-08-18T04:44:03.887Z,99476.91
2022-08-18T04:46:35.512Z,99478.41
2022-08-18T04:49:02.024Z,99481.72
2022-08-18T04:52:26.848Z,99482.59
2022-08-18T04:54:16.559Z,99479.72
2022-08-18T04:56:43.624Z,99476.03
2022-08-18T04:59:14.157Z,99487.78
2022-08-18T05:01:45.744Z,99482.25
2022-08-18T05:04:13.676Z,99489.28
2022-08-18T05:06:41.418Z,99490.09
2022-08-18T05:09:09.839Z,99487.41
2022-08-18T05:11:37.554Z,99483.91
2022-08-18T05:14:07.172Z,99481.88
2022-08-18T05:16:42.197Z,99478.38
2022-08-18T05:19:19.838Z,99486.22
2022-08-18T05:21:51.487Z,99493.44
2022-08-18T05:24:20.783Z,99500.50
2022-08-18T05:26:49.052Z,99503.34
2022-08-18T05:29:18.799Z,99505.00
2022-08-18T05:31:48.216Z,99506.00
2022-08-18T05:34:15.510Z,99512.22
2022-08-18T05:36:51.151Z,99505.53
2022-08-18T05:39:17.596Z,99511.38
2022-08-18T05:41:49.126Z,99514.22
2022-08-18T05:44:24.593Z,99517.94
2022-08-18T05:46:54.227Z,99523.13
2022-08-18T05:49:22.152Z,99521.28
2022-08-18T05:52:00.202Z,99526.13
2022-08-18T05:54:55.455Z,99523.28
2022-08-18T05:57:24.116Z,99516.91
2022-08-18T05:59:53.839Z,99521.63
2022-08-18T06:02:43.276Z,99510.59
2022-08-18T06:05:14.190Z,99512.06
2022-08-18T06:07:49.262Z,99518.25
2022-08-18T06:10:16.303Z,99519.09
2022-08-18T06:12:47.486Z,99529.66
2022-08-18T06:15:39.540Z,99523.97
2022-08-18T06:18:21.106Z,99522.97
2022-08-18T06:21:02.417Z,99527.47
2022-08-18T06:23:34.739Z,99524.31
2022-08-18T06:26:19.935Z,99525.13
2022-08-18T06:28:52.559Z,99528.97
2022-08-18T06:31:33.133Z,99528.16
2022-08-18T06:34:17.054Z,99527.16
2022-08-18T06:37:04.581Z,99534.19
2022-08-18T06:39:47.562Z,99536.00
2022-08-18T06:42:18.696Z,99540.03
2022-08-18T06:44:51.440Z,99538.03
2022-08-18T06:47:30.339Z,99545.75
2022-08-18T06:50:07.337Z,99551.91
2022-08-18T06:52:37.016Z,99558.28
2022-08-18T06:55:17.215Z,99553.75
2022-08-18T06:58:00.180Z,99556.75
2022-08-18T07:00:34.103Z,99549.50
2022-08-18T07:03:11.879Z,99555.38
2022-08-18T07:05:59.239Z,99563.19
2022-08-18T07:08:40.197Z,99567.56
2022-08-18T07:11:28.608Z,99570.75
2022-08-18T07:14:15.520Z,99577.91
2022-08-18T07:16:59.545Z,99574.88
2022-08-18T07:19:30.112Z,99574.03
2022-08-18T07:22:13.285Z,99581.44
2022-08-18T07:24:50.591Z,99583.78
2022-08-18T07:27:22.954Z,99584.25
2022-08-18T07:30:08.011Z,99590.81
2022-08-18T07:32:57.860Z,99591.47
2022-08-18T07:35:32.789Z,99599.06
2022-08-18T07:38:43.783Z,99597.69
2022-08-18T07:41:22.824Z,99593.69
2022-08-18T07:43:51.966Z,99595.00
2022-08-18T07:46:30.985Z,99594.16
2022-08-18T07:49:00.265Z,99593.47
2022-08-18T07:51:43.741Z,99589.75
2022-08-18T07:54:47.868Z,99586.19
2022-08-18T07:57:35.371Z,99584.34
2022-08-18T08:03:47.180Z,99590.63
2022-08-18T08:06:34.941Z,99581.84
2022-08-18T08:09:20.280Z,99581.44
2022-08-18T08:12:05.277Z,99582.91
2022-08-18T08:14:55.584Z,99580.38
2022-08-18T08:17:46.888Z,99590.22
2022-08-18T08:20:19.848Z,99584.13
2022-08-18T08:22:58.551Z,99589.81
2022-08-18T08:25:47.263Z,99582.53
2022-08-18T08:28:45.293Z,99588.25
2022-08-18T08:34:44.689Z,99591.22
2022-08-18T08:37:30.102Z,99597.56
2022-08-18T08:40:02.449Z,99599.81
2022-08-18T08:42:48.052Z,99600.09
2022-08-18T08:45:26.864Z,99603.25
2022-08-18T08:48:09.254Z,99602.91
2022-08-18T08:50:43.908Z,99609.59
2022-08-18T08:53:41.834Z,99619.50
2022-08-18T08:56:14.566Z,99622.47
2022-08-18T08:58:54.577Z,99631.97
2022-08-18T09:01:39.885Z,99622.84
2022-08-18T09:04:21.307Z,99629.34
2022-08-18T09:07:09.692Z,99627.19
2022-08-18T09:09:42.558Z,99615.78
2022-08-18T09:12:17.066Z,99619.00
2022-08-18T09:15:17.472Z,99614.47
2022-08-18T09:18:42.535Z,99619.19
2022-08-18T09:21:21.415Z,99615.97
2022-08-18T09:23:52.632Z,99619.28
2022-08-18T09:26:39.016Z,99615.56
2022-08-18T09:29:25.725Z,99617.56
2022-08-18T09:32:22.663Z,99618.69
2022-08-18T09:34:58.793Z,99614.03
2022-08-18T09:37:41.356Z,99617.84
2022-08-18T09:41:01.099Z,99620.31
2022-08-18T09:43:54.598Z,99621.88
2022-08-18T09:46:53.028Z,99625.31
2022-08-18T09:49:22.273Z,99615.75
2022-08-18T09:51:51.163Z,99615.66
2022-08-18T09:54:32.250Z,99613.03
2022-08-18T09:57:05.137Z,99620.47
2022-08-18T09:59:35.032Z,99622.13
2022-08-18T10:02:01.664Z,99635.56
2022-08-18T10:04:35.384Z,99642.94
2022-08-18T10:07:43.326Z,99638.28
2022-08-18T10:11:00.177Z,99627.19
2022-08-18T10:13:24.943Z,99621.91
2022-08-18T10:15:54.560Z,99624.09
2022-08-18T10:18:39.797Z,99630.78
2022-08-18T10:21:22.860Z,99619.84
2022-08-18T10:24:29.930Z,99602.84
2022-08-18T10:27:00.434Z,99596.00
2022-08-18T10:29:29.881Z,99602.47
2022-08-18T10:31:59.853Z,99607.28
2022-08-18T10:34:58.342Z,99610.84
2022-08-18T10:37:46.194Z,99626.03
2022-08-18T10:40:26.572Z,99617.97
2022-08-18T10:43:45.949Z,99608.25
2022-08-18T10:46:25.167Z,99619.34
2022-08-18T10:52:40.286Z,99624.84
2022-08-18T10:55:26.059Z,99623.25
2022-08-18T10:58:43.664Z,99633.88
2022-08-18T11:01:43.398Z,99625.63
2022-08-18T11:04:33.473Z,99634.78
2022-08-18T11:07:07.735Z,99622.97
2022-08-18T11:09:35.160Z,99630.88
2022-08-18T11:12:08.738Z,99623.56
2022-08-18T11:14:51.150Z,99624.63
2022-08-18T11:17:30.092Z,99623.16
2022-08-18T11:19:56.610Z,99615.25
2022-08-18T11:22:34.205Z,99621.91
2022-08-18T11:25:17.280Z,99625.03
2022-08-18T11:27:46.977Z,99611.31
2022-08-18T11:30:15.549Z,99609.06
2022-08-18T11:32:52.066Z,99608.28
2022-08-18T11:35:23.988Z,99612.03
2022-08-18T11:38:00.126Z,99608.94
2022-08-18T11:41:08.705Z,99607.91
2022-08-18T11:43:21.305Z,99603.75
2022-08-18T11:46:00.251Z,99602.09
2022-08-18T11:48:53.542Z,99603.59
2022-08-18T11:51:23.570Z,99599.00
2022-08-18T11:54:02.485Z,99599.97
2022-08-18T11:56:38.722Z,99594.09
2022-08-18T11:59:52.702Z,99593.75
2022-08-18T12:02:18.371Z,99599.88
2022-08-18T12:04:52.492Z,99594.72
2022-08-18T12:07:32.110Z,99591.25
2022-08-18T12:10:17.741Z,99595.00
2022-08-18T12:12:51.747Z,99580.06
2022-08-18T12:18:05.269Z,99578.56
2022-08-18T12:20:31.757Z,99580.34
2022-08-18T12:22:58.464Z,99574.84
2022-08-18T12:25:25.693Z,99564.41
2022-08-18T12:27:53.834Z,99566.47
2022-08-18T12:30:20.358Z,99565.09
2022-08-18T12:35:34.735Z,99568.44
2022-08-18T12:38:12.273Z,99565.09
2022-08-18T12:40:40.877Z,99564.44
2022-08-18T12:43:07.647Z,99567.19
2022-08-18T12:45:34.301Z,99557.50
2022-08-18T12:48:04.715Z,99553.44
2022-08-18T12:50:39.110Z,99549.69
2022-08-18T12:53:17.760Z,99543.91
2022-08-18T12:55:57.504Z,99524.56
2022-08-18T12:58:24.097Z,99517.22
2022-08-18T13:00:51.757Z,99525.06
2022-08-18T13:03:19.271Z,99523.25
2022-08-18T13:05:46.020Z,99526.19
2022-08-18T13:08:30.666Z,99523.00
2022-08-18T13:11:10.464Z,99525.84
2022-08-18T13:13:42.750Z,99527.44
2022-08-18T13:16:09.542Z,99539.72
2022-08-18T13:18:43.086Z,99537.72
2022-08-18T13:21:12.966Z,99540.06
2022-08-18T13:23:40.137Z,99550.06
2022-08-18T13:26:12.923Z,99555.69
2022-08-18T13:28:57.260Z,99550.97
2022-08-18T13:31:26.794Z,99559.47
2022-08-18T13:33:57.960Z,99563.25
2022-08-18T13:36:44.316Z,99558.22
2022-08-18T13:39:21.128Z,99559.31
2022-08-18T13:41:49.748Z,99575.94
2022-08-18T13:44:18.811Z,99570.44
2022-08-18T13:46:48.147Z,99579.38
2022-08-18T13:49:18.660Z,99576.34
2022-08-18T13:51:56.532Z,99574.09
2022-08-18T13:54:34.002Z,99565.22
2022-08-18T13:57:03.198Z,99561.31
2022-08-18T13:59:34.159Z,99555.28
2022-08-18T14:02:08.535Z,99556.81
2022-08-18T14:04:36.247Z,99561.41
2022-08-18T14:07:07.273Z,99557.06
2022-08-18T14:09:38.000Z,99568.94
2022-08-18T14:12:21.580Z,99564.81
2022-08-18T14:14:49.990Z,99555.88
2022-08-18T14:17:19.525Z,99557.75
2022-08-18T14:20:04.686Z,99560.47
2022-08-18T14:22:50.034Z,99565.88
2022-08-18T14:25:35.291Z,99556.13
2022-08-18T14:28:04.151Z,99556.75
2022-08-18T14:30:31.552Z,99556.72
2022-08-18T14:32:59.488Z,99562.97
2022-08-18T14:35:33.340Z,99560.88
2022-08-18T14:38:15.132Z,99557.78
2022-08-18T14:40:44.934Z,99551.97
2022-08-18T14:43:14.101Z,99561.72
2022-08-18T14:45:47.390Z,99555.91
2022-08-18T14:48:21.637Z,99552.75
2022-08-18T14:50:54.451Z,99547.56
2022-08-18T14:53:26.349Z,99546.34
2022-08-18T14:55:54.765Z,99547.97
2022-08-18T14:58:28.754Z,99544.81
2022-08-18T15:00:58.198Z,99548.06
2022-08-18T15:03:30.952Z,99545.72
2022-08-18T15:06:00.451Z,99536.38
2022-08-18T15:08:28.251Z,99547.50
2022-08-18T15:10:56.042Z,99552.94
2022-08-18T15:13:26.444Z,99557.19
2022-08-18T15:15:55.963Z,99541.38
2022-08-18T15:18:29.352Z,99541.63
2022-08-18T15:21:34.979Z,99537.44
2022-08-18T15:24:20.510Z,99542.38
2022-08-18T15:26:51.514Z,99536.50
2022-08-18T15:29:19.138Z,99532.78
2022-08-18T15:31:56.610Z,99531.56
2022-08-18T15:34:27.547Z,99531.53
2022-08-18T15:36:56.958Z,99522.78
2022-08-18T15:39:24.479Z,99524.09
2022-08-18T15:44:22.891Z,99528.84
2022-08-18T15:46:52.984Z,99518.63
2022-08-18T15:49:22.918Z,99526.44
2022-08-18T15:51:50.242Z,99531.09
2022-08-18T15:54:19.524Z,99527.06
2022-08-18T15:56:57.689Z,99525.41
2022-08-18T15:59:32.989Z,99524.25
2022-08-18T16:05:53.481Z,99520.91
2022-08-18T16:08:21.029Z,99521.16
2022-08-18T16:10:47.723Z,99514.97
2022-08-18T16:13:14.710Z,99522.91
2022-08-18T16:15:48.144Z,99513.31
2022-08-18T16:18:16.463Z,99522.13
2022-08-18T16:20:43.565Z,99528.13
2022-08-18T16:23:14.673Z,99527.56
2022-08-18T16:25:43.123Z,99526.38
2022-08-18T16:28:11.797Z,99519.09
2022-08-18T16:30:38.294Z,99524.34
2022-08-18T16:33:06.781Z,99530.41
2022-08-18T16:35:34.318Z,99525.69
2022-08-18T16:38:06.536Z,99530.47
2022-08-18T16:40:33.077Z,99528.09
2022-08-18T16:43:00.650Z,99526.88
2022-08-18T16:45:27.858Z,99523.41
2022-08-18T16:47:55.360Z,99528.38
2022-08-18T16:50:24.900Z,99531.34
2022-08-18T16:52:51.779Z,99522.75
2022-08-18T16:55:18.655Z,99522.66
2022-08-18T16:58:03.928Z,99525.00
2022-08-18T17:00:54.565Z,99528.00
2022-08-18T17:03:39.829Z,99529.63
2022-08-18T17:06:09.516Z,99529.59
2022-08-18T17:08:37.314Z,99520.16
2022-08-18T17:11:06.834Z,99524.06
2022-08-18T17:13:34.240Z,99525.34
2022-08-18T17:16:00.843Z,99523.69
2022-08-18T17:18:27.621Z,99522.38
2022-08-18T17:20:54.358Z,99521.94
2022-08-18T17:23:22.773Z,99523.72
2022-08-18T17:25:50.815Z,99529.06
2022-08-18T17:28:23.036Z,99515.94
2022-08-18T17:30:53.107Z,99516.84
2022-08-18T17:33:26.397Z,99519.22
2022-08-18T17:35:56.215Z,99513.84
2022-08-18T17:38:27.544Z,99511.88
2022-08-18T17:40:57.195Z,99510.84
2022-08-18T17:43:27.456Z,99509.22
2022-08-18T17:45:57.404Z,99507.16
2022-08-18T17:48:31.218Z,99501.78
2022-08-18T17:51:29.049Z,99504.97
2022-08-18T17:53:59.292Z,99507.50
2022-08-18T17:56:38.016Z,99511.53
2022-08-18T17:59:07.475Z,99511.16
2022-08-18T18:02:18.347Z,99508.50
2022-08-18T18:05:01.086Z,99511.66
2022-08-18T18:07:38.517Z,99509.44
2022-08-18T18:10:37.702Z,99512.81
2022-08-18T18:13:15.787Z,99515.50
2022-08-18T18:15:54.300Z,99514.47
2022-08-18T18:18:31.286Z,99514.91
2022-08-18T18:21:15.610Z,99526.13
2022-08-18T18:23:47.854Z,99516.16
2022-08-18T18:26:33.900Z,99524.25
2022-08-18T18:29:15.067Z,99511.94
2022-08-18T18:31:44.842Z,99517.13
2022-08-18T18:34:27.976Z,99521.47
2022-08-18T18:36:56.309Z,99522.91
2022-08-18T18:39:33.861Z,99525.81
2022-08-18T18:42:19.025Z,99532.81
2022-08-18T18:44:52.072Z,99527.59
2022-08-18T18:47:42.682Z,99527.50
2022-08-18T18:50:39.788Z,99523.31
2022-08-18T18:53:45.173Z,99527.22
2022-08-18T18:56:14.559Z,99527.81
2022-08-18T18:58:48.880Z,99532.56
2022-08-18T19:01:51.109Z,99534.94
2022-08-18T19:04:22.905Z,99531.59
2022-08-18T19:07:08.838Z,99533.13
2022-08-18T19:09:57.933Z,99526.03
2022-08-18T19:12:30.824Z,99531.16
2022-08-18T19:15:08.997Z,99536.25
2022-08-18T19:17:41.071Z,99542.44
2022-08-18T19:20:23.476Z,99542.94
2022-08-18T19:23:04.880Z,99542.88
2022-08-18T19:29:16.613Z,99543.31
2022-08-18T19:31:54.474Z,99541.09
2022-08-18T19:34:30.028Z,99536.88
2022-08-18T19:37:27.326Z,99547.94
2022-08-18T19:40:16.872Z,99545.16
2022-08-18T19:43:12.433Z,99548.81
2022-08-18T19:45:50.984Z,99549.38
2022-08-18T19:48:43.094Z,99542.41
2022-08-18T19:51:20.266Z,99543.63
2022-08-18T19:54:14.168Z,99537.50
2022-08-18T19:56:52.269Z,99545.28
2022-08-18T19:59:42.281Z,99550.56
2022-08-18T20:02:08.698Z,99539.97
2022-08-18T20:05:05.597Z,99549.19
2022-08-18T20:08:00.234Z,99555.94
2022-08-18T20:10:57.849Z,99553.63
2022-08-18T20:13:43.108Z,99550.28
2022-08-18T20:16:43.848Z,99548.13
2022-08-18T20:19:31.203Z,99554.91
2022-08-18T20:22:04.700Z,99553.06
2022-08-18T20:24:42.849Z,99549.06
2022-08-18T20:27:26.461Z,99545.44
2022-08-18T20:30:20.496Z,99545.59
2022-08-18T20:33:08.939Z,99540.34
2022-08-18T20:35:51.909Z,99543.03
2022-08-18T20:38:35.740Z,99541.22
2022-08-18T20:41:23.779Z,99538.44
2022-08-18T20:44:28.694Z,99540.97
2022-08-18T20:47:16.722Z,99539.84
2022-08-18T20:50:10.572Z,99534.00
2022-08-18T20:52:48.642Z,99543.09
2022-08-18T20:55:34.952Z,99542.81
2022-08-18T20:58:10.657Z,99549.06
2022-08-18T21:00:42.740Z,99550.25
2022-08-18T21:03:14.678Z,99552.66
2022-08-18T21:05:45.018Z,99553.84
2022-08-18T21:08:16.410Z,99555.38
2022-08-18T21:11:02.972Z,99558.13
2022-08-18T21:13:41.326Z,99560.50
2022-08-18T21:16:38.188Z,99560.72
2022-08-18T21:19:23.602Z,99564.28
2022-08-18T21:21:57.555Z,99567.31
2022-08-18T21:24:39.439Z,99569.03
2022-08-18T21:27:12.278Z,99564.00
2022-08-18T21:29:49.439Z,99563.53
2022-08-18T21:32:22.974Z,99562.38
2022-08-18T21:34:50.563Z,99560.69
2022-08-18T21:37:18.529Z,99573.78
2022-08-18T21:39:57.155Z,99587.06
2022-08-18T21:42:29.976Z,99586.91
2022-08-18T21:45:00.775Z,99595.13
2022-08-18T21:47:33.977Z,99591.13
2022-08-18T21:50:08.320Z,99581.56
2022-08-18T21:52:38.192Z,99580.91
2022-08-18T21:55:15.142Z,99585.78
2022-08-18T21:58:02.363Z,99584.81
2022-08-18T22:00:33.983Z,99590.00
2022-08-18T22:03:20.944Z,99586.00
2022-08-18T22:06:21.477Z,99582.44
2022-08-18T22:08:54.383Z,99578.75
2022-08-18T22:12:00.644Z,99581.13
2022-08-18T22:14:55.662Z,99592.03
2022-08-18T22:17:42.864Z,99577.63
2022-08-18T22:20:32.922Z,99588.69
2022-08-18T22:23:24.731Z,99587.84
2022-08-18T22:25:51.435Z,99594.88
2022-08-18T22:28:27.284Z,99575.91
2022-08-18T22:30:54.234Z,99579.28
2022-08-18T22:33:20.723Z,99582.13
2022-08-18T22:35:54.918Z,99588.69
2022-08-18T22:38:22.499Z,99591.03
2022-08-18T22:40:49.574Z,99600.06
2022-08-18T22:43:16.613Z,99593.88
2022-08-18T22:45:43.236Z,99593.88
2022-08-18T22:48:09.793Z,99598.56
2022-08-18T22:50:36.539Z,99594.22
2022-08-18T22:53:03.128Z,99596.22
2022-08-18T22:55:29.617Z,99595.56
2022-08-18T22:57:57.213Z,99592.38
2022-08-18T23:00:25.327Z,99595.38
2022-08-18T23:02:53.749Z,99600.91
2022-08-18T23:05:21.746Z,99592.38
2022-08-18T23:07:48.394Z,99597.06
2022-08-18T23:10:16.606Z,99595.72
2022-08-18T23:12:44.502Z,99597.75
2022-08-18T23:15:13.847Z,99592.72
2022-08-18T23:17:42.222Z,99601.09
2022-08-18T23:20:12.447Z,99597.91
2022-08-18T23:22:45.442Z,99595.38
2022-08-18T23:25:13.287Z,99594.72
2022-08-18T23:27:40.973Z,99600.41
2022-08-18T23:30:08.113Z,99594.41
2022-08-18T23:32:34.592Z,99591.03
2022-08-18T23:35:01.173Z,99593.06
2022-08-18T23:37:27.747Z,99592.53
2022-08-18T23:39:55.851Z,99595.56
2022-08-18T23:42:23.071Z,99593.22
2022-08-18T23:44:49.912Z,99605.91
2022-08-18T23:47:18.527Z,99603.59
2022-08-18T23:49:45.047Z,99612.97
2022-08-18T23:52:11.574Z,99604.75
2022-08-18T23:54:39.125Z,99606.03
2022-08-18T23:57:05.849Z,99609.19
2022-08-18T23:59:32.453Z,99598.66
